Gridley, Illinois
Current Conditions -  °F | °C
As of 2:15 AM on Friday 24 Oct 2014 (Local Time) from KPNT Reporting Station
Scattered Clouds Scattered Clouds  
Wind Chill: 49°   Ceiling: Unl
Heat Index: 49°   Visibility: 10mi
Dew Point: 46°   Wind: 3mph
Humidity: 91%   Direction: 170°S
Pressure: 30.06"   Gusts: NA
Location:  40.74°N, 88.88°W
Report Text: KPNT 240715Z AUTO 17003KT 10SM SCT047 09/08 A3006 RMK AO2 T00920078
Loading
Personal Weather Stations






























Interactive Weather Map
Tropical Storm Tracking
New forecast layout! Learn more

10-Day Weather Forecast

Advertisements
Track Severe Weather on mobile